Time;durP1;ratioP1;P1;durP2;ratioP2;P2;SDS_P1;SDS_P2;PMS_P1;PMS_P2;Temp;Humidity;BMP_temperature;BMP_pressure;BME280_temperature;BME280_humidity;BME280_pressure;Samples;Min_cycle;Max_cycle;Signal;HPM_P1;HPM_P2
2022/06/06 00:01:52;;;;;;;0.00;0.00;;;18.00;99.90;;;;;;4990774;28;20026;-74
2022/06/06 00:04:21;;;;;;;0.55;0.55;;;18.00;99.90;;;;;;4991373;28;20030;-74
2022/06/06 00:06:47;;;;;;;0.00;0.00;;;18.00;99.90;;;;;;4957921;28;20399;-74
2022/06/06 00:09:15;;;;;;;0.43;0.43;;;17.90;99.90;;;;;;4972598;28;20113;-74
2022/06/06 00:11:42;;;;;;;0.00;0.00;;;18.00;99.90;;;;;;4973833;28;20065;-74
2022/06/06 00:14:09;;;;;;;0.00;0.00;;;18.00;99.90;;;;;;4975713;28;20516;-74
2022/06/06 00:16:35;;;;;;;1.30;0.93;;;18.00;99.90;;;;;;4974295;28;20493;-74
2022/06/06 00:19:04;;;;;;;1.38;0.65;;;17.90;99.90;;;;;;4957280;28;20038;-74
2022/06/06 00:21:33;;;;;;;0.50;0.43;;;17.90;99.90;;;;;;4990766;28;20039;-74
2022/06/06 00:24:00;;;;;;;0.00;0.00;;;17.90;99.90;;;;;;4973876;28;20482;-74
2022/06/06 00:26:28;;;;;;;0.20;0.20;;;17.90;99.90;;;;;;4973612;28;20066;-75
2022/06/06 00:28:55;;;;;;;0.08;0.08;;;17.90;99.90;;;;;;4956586;28;20110;-74
2022/06/06 00:36:50;;;;;;;0.00;0.00;;;17.80;99.90;;;;;;4990919;28;20214;-74
2022/06/06 00:39:18;;;;;;;0.40;0.40;;;17.70;99.90;;;;;;4972834;28;20558;-74
2022/06/06 00:41:49;;;;;;;1.17;0.45;;;17.60;99.90;;;;;;4973431;28;20037;-74
2022/06/06 00:44:32;;;;;;;0.00;0.00;;;17.70;99.90;;;;;;4965151;28;20575;-74
2022/06/06 00:47:26;;;;;;;2.13;1.35;;;17.60;99.90;;;;;;4953686;28;20418;-74
2022/06/06 00:50:03;;;;;;;0.15;0.15;;;17.70;99.90;;;;;;4970687;28;20049;-74
2022/06/06 00:52:37;;;;;;;0.10;0.10;;;17.80;99.90;;;;;;4974253;28;20026;-74
2022/06/06 00:55:21;;;;;;;0.30;0.30;;;17.90;99.90;;;;;;4974624;28;20509;-74
2022/06/06 00:57:55;;;;;;;0.00;0.00;;;17.90;99.90;;;;;;4958092;28;20034;-75
2022/06/06 01:00:22;;;;;;;0.28;0.28;;;17.90;99.90;;;;;;4957298;28;20031;-74
2022/06/06 01:02:56;;;;;;;0.52;0.25;;;17.80;99.90;;;;;;4957110;28;20031;-74
2022/06/06 01:05:24;;;;;;;3.35;1.35;;;17.70;99.90;;;;;;4955413;28;20027;-74
2022/06/06 01:07:50;;;;;;;0.00;0.00;;;17.60;99.90;;;;;;4955478;28;20031;-74
2022/06/06 01:10:17;;;;;;;0.10;0.10;;;17.50;99.90;;;;;;4974640;28;20417;-74
2022/06/06 01:12:47;;;;;;;0.30;0.20;;;17.40;99.90;;;;;;4974362;28;20027;-74
2022/06/06 01:15:17;;;;;;;0.03;0.03;;;17.40;99.90;;;;;;4951779;29;20023;-74
2022/06/06 01:18:15;;;;;;;0.93;0.52;;;17.30;99.90;;;;;;4938361;29;20053;-75
2022/06/06 01:21:08;;;;;;;1.27;0.57;;;17.00;99.90;;;;;;4940931;29;20031;-75
2022/06/06 01:24:09;;;;;;;0.25;0.20;;;16.80;99.90;;;;;;4959403;28;20027;-75
2022/06/06 01:27:19;;;;;;;0.10;0.10;;;16.70;99.90;;;;;;4974190;28;20104;-75
2022/06/06 01:29:51;;;;;;;0.30;0.30;;;16.50;99.90;;;;;;4973439;28;20241;-75
2022/06/06 01:32:21;;;;;;;0.30;0.30;;;16.30;99.90;;;;;;4972992;28;20030;-75
2022/06/06 01:34:51;;;;;;;0.47;0.20;;;16.30;99.90;;;;;;4956800;28;20383;-75
2022/06/06 01:37:41;;;;;;;0.17;0.17;;;16.20;99.90;;;;;;4974183;28;20054;-75
2022/06/06 01:40:13;;;;;;;0.10;0.10;;;16.20;99.90;;;;;;4953775;28;20039;-75
2022/06/06 01:43:05;;;;;;;0.30;0.30;;;16.10;99.90;;;;;;4957181;28;20042;-75
2022/06/06 01:46:01;;;;;;;1.50;1.40;;;16.10;99.90;;;;;;4973967;28;20121;-75
2022/06/06 01:48:34;;;;;;;0.03;0.03;;;16.00;99.90;;;;;;4957410;28;20045;-75
2022/06/06 01:51:16;;;;;;;0.05;0.05;;;16.00;99.90;;;;;;4957070;28;20035;-75
2022/06/06 01:53:43;;;;;;;0.25;0.22;;;16.00;99.90;;;;;;4973624;28;20031;-75
2022/06/06 01:56:14;;;;;;;0.08;0.05;;;16.00;99.90;;;;;;4973572;28;20508;-75
2022/06/06 01:58:40;;;;;;;0.38;0.30;;;16.10;99.90;;;;;;4956203;28;20445;-75
2022/06/06 02:01:06;;;;;;;4.07;1.38;;;16.10;99.90;;;;;;4973517;28;20034;-75
2022/06/06 02:03:33;;;;;;;0.63;0.63;;;16.20;99.90;;;;;;4973346;28;20030;-76
2022/06/06 02:06:02;;;;;;;0.22;0.20;;;16.30;99.90;;;;;;4973760;28;20511;-75
2022/06/06 02:08:29;;;;;;;0.47;0.47;;;16.30;99.90;;;;;;4981842;28;20038;-75
2022/06/06 02:10:54;;;;;;;1.17;0.20;;;16.40;99.90;;;;;;4959082;28;20467;-76
2022/06/06 02:13:20;;;;;;;0.03;0.03;;;16.40;99.90;;;;;;4959673;28;20030;-76
2022/06/06 02:15:46;;;;;;;0.20;0.20;;;16.40;99.90;;;;;;4962967;28;20446;-76
2022/06/06 02:18:13;;;;;;;0.00;0.00;;;16.40;99.90;;;;;;4973182;28;20026;-75
2022/06/06 02:20:39;;;;;;;0.15;0.15;;;16.30;99.90;;;;;;4955199;28;20121;-75
2022/06/06 02:23:05;;;;;;;0.47;0.47;;;16.30;99.90;;;;;;4972882;28;20030;-75
2022/06/06 02:25:32;;;;;;;0.28;0.28;;;16.30;99.90;;;;;;4957293;28;20423;-76
2022/06/06 02:27:59;;;;;;;0.30;0.30;;;16.30;99.90;;;;;;4957574;28;20085;-76
2022/06/06 02:30:30;;;;;;;0.08;0.08;;;16.40;99.90;;;;;;4955118;28;20034;-75
2022/06/06 02:32:56;;;;;;;0.70;0.70;;;16.50;99.90;;;;;;4973020;28;20117;-75
2022/06/06 02:35:29;;;;;;;0.00;0.00;;;16.60;99.90;;;;;;4955512;28;20058;-75
2022/06/06 02:37:58;;;;;;;0.43;0.43;;;16.60;99.90;;;;;;4947189;28;20538;-75
2022/06/06 02:40:26;;;;;;;0.00;0.00;;;16.60;99.90;;;;;;4974529;28;20042;-75
2022/06/06 02:42:53;;;;;;;0.65;0.60;;;16.60;99.90;;;;;;4974535;28;20125;-76
2022/06/06 02:45:19;;;;;;;0.30;0.30;;;16.60;99.90;;;;;;4975133;28;20034;-76
2022/06/06 02:47:51;;;;;;;0.00;0.00;;;16.60;99.90;;;;;;4974836;28;20494;-74
2022/06/06 02:50:20;;;;;;;0.40;0.40;;;16.60;99.90;;;;;;4974165;28;20038;-75
2022/06/06 02:52:46;;;;;;;0.15;0.15;;;16.60;99.90;;;;;;4992385;28;20034;-75
2022/06/06 02:55:14;;;;;;;0.65;0.35;;;16.60;99.90;;;;;;4958747;28;20390;-75
2022/06/06 02:57:44;;;;;;;0.80;0.80;;;16.60;99.90;;;;;;4974826;28;20034;-75
2022/06/06 03:00:19;;;;;;;0.10;0.10;;;16.60;99.90;;;;;;4974371;28;20042;-75
2022/06/06 03:02:45;;;;;;;0.82;0.77;;;16.60;99.90;;;;;;4974723;28;20038;-75
2022/06/06 03:05:12;;;;;;;0.13;0.13;;;16.50;99.90;;;;;;4974599;28;20042;-75
2022/06/06 03:07:58;;;;;;;0.22;0.22;;;16.60;99.90;;;;;;4950963;28;20023;-75
2022/06/06 03:10:43;;;;;;;0.00;0.00;;;16.50;99.90;;;;;;4990840;28;20931;-75
2022/06/06 03:13:49;;;;;;;0.45;0.45;;;16.50;99.90;;;;;;4991435;28;20026;-75
2022/06/06 03:22:53;;;;;;;0.80;0.80;;;16.40;99.90;;;;;;4972252;28;20037;-75
2022/06/06 03:25:49;;;;;;;3.20;0.45;;;16.30;99.90;;;;;;4972085;28;20042;-75
2022/06/06 03:29:03;;;;;;;1.35;1.02;;;16.30;99.90;;;;;;4952903;28;20062;-75
2022/06/06 03:31:40;;;;;;;2.45;0.85;;;16.30;99.90;;;;;;4972761;28;20035;-74
2022/06/06 03:34:36;;;;;;;0.17;0.17;;;16.00;99.90;;;;;;4973618;28;20082;-75
2022/06/06 03:37:22;;;;;;;0.40;0.40;;;15.90;99.90;;;;;;4971882;28;20444;-74
2022/06/06 03:40:10;;;;;;;4.75;0.65;;;15.80;99.90;;;;;;4953645;28;20031;-75
2022/06/06 03:43:14;;;;;;;0.28;0.28;;;15.70;99.90;;;;;;4972034;28;20391;-74
2022/06/06 03:46:20;;;;;;;0.00;0.00;;;15.70;99.90;;;;;;4949241;28;20047;-74
2022/06/06 03:49:46;;;;;;;0.68;0.52;;;15.70;99.90;;;;;;4956491;28;20033;-75
2022/06/06 03:53:10;;;;;;;1.55;1.23;;;15.70;99.90;;;;;;4967960;28;20058;-75
2022/06/06 03:56:26;;;;;;;0.13;0.13;;;15.80;99.90;;;;;;4930358;29;20515;-75
2022/06/06 03:58:53;;;;;;;0.73;0.38;;;15.90;99.90;;;;;;4892020;29;20044;-76
2022/06/06 04:01:22;;;;;;;0.00;0.00;;;16.00;99.90;;;;;;4896019;29;20728;-75
2022/06/06 04:03:49;;;;;;;0.15;0.15;;;16.00;99.90;;;;;;4925918;28;20043;-74
2022/06/06 04:06:17;;;;;;;0.30;0.30;;;16.10;99.90;;;;;;4970342;28;20062;-74
2022/06/06 04:08:43;;;;;;;0.20;0.20;;;16.10;99.90;;;;;;4953411;28;20023;-74
2022/06/06 04:11:28;;;;;;;0.00;0.00;;;16.00;99.90;;;;;;4953978;28;20038;-74
2022/06/06 04:14:12;;;;;;;0.45;0.22;;;16.00;99.90;;;;;;4954596;28;20039;-74
2022/06/06 04:16:55;;;;;;;3.25;1.52;;;16.10;99.90;;;;;;4971234;28;20034;-75
2022/06/06 04:19:48;;;;;;;0.38;0.13;;;16.10;99.90;;;;;;4953602;28;20101;-74
2022/06/06 04:22:18;;;;;;;6.22;1.20;;;16.20;99.90;;;;;;4955364;28;20423;-75
2022/06/06 04:25:27;;;;;;;0.90;0.82;;;16.30;99.90;;;;;;4954070;28;20019;-75
2022/06/06 04:28:18;;;;;;;0.30;0.17;;;16.30;99.90;;;;;;4975306;28;20050;-75
2022/06/06 04:30:57;;;;;;;0.10;0.10;;;16.40;99.90;;;;;;4968037;23;20069;-70
2022/06/06 04:33:59;;;;;;;1.33;0.90;;;16.50;99.90;;;;;;4955936;28;20027;-70
2022/06/06 04:36:38;;;;;;;0.20;0.20;;;16.50;99.90;;;;;;4956226;28;20388;-70
2022/06/06 04:39:46;;;;;;;0.22;0.17;;;16.60;99.90;;;;;;4955166;28;20031;-70
2022/06/06 04:43:01;;;;;;;0.40;0.40;;;16.70;99.90;;;;;;4936287;29;20078;-70
2022/06/06 04:46:02;;;;;;;0.25;0.25;;;16.80;99.90;;;;;;4939169;29;20028;-70
2022/06/06 04:48:29;;;;;;;0.35;0.32;;;16.90;99.90;;;;;;4935015;29;20053;-70
2022/06/06 04:50:56;;;;;;;0.38;0.38;;;17.00;99.90;;;;;;4936142;29;20036;-71
2022/06/06 04:53:26;;;;;;;0.15;0.15;;;17.00;99.90;;;;;;4935033;29;20043;-70
2022/06/06 04:55:55;;;;;;;6.83;1.40;;;17.00;99.90;;;;;;4935242;29;20023;-70
2022/06/06 04:58:22;;;;;;;0.63;0.43;;;17.10;99.90;;;;;;4935314;29;20028;-70
2022/06/06 05:00:48;;;;;;;0.03;0.03;;;17.20;99.90;;;;;;4934489;29;20042;-70
2022/06/06 05:03:14;;;;;;;0.47;0.40;;;17.20;99.90;;;;;;4934051;29;20095;-70
2022/06/06 05:05:59;;;;;;;1.55;0.43;;;17.30;99.90;;;;;;4919150;29;20111;-70
2022/06/06 05:08:48;;;;;;;1.23;0.63;;;17.30;99.90;;;;;;4939537;29;20094;-70
2022/06/06 05:11:50;;;;;;;1.95;1.42;;;17.30;99.90;;;;;;4935963;29;20039;-70
2022/06/06 05:15:01;;;;;;;0.93;0.60;;;17.40;99.90;;;;;;4936604;29;20063;-70
2022/06/06 05:17:52;;;;;;;2.25;0.52;;;17.40;99.90;;;;;;4955009;29;20403;-70
2022/06/06 05:20:50;;;;;;;0.47;0.47;;;17.40;99.90;;;;;;4954506;29;20193;-71
2022/06/06 05:23:43;;;;;;;0.00;0.00;;;17.50;99.90;;;;;;4954995;29;20023;-70
2022/06/06 05:26:57;;;;;;;2.13;1.33;;;17.60;99.90;;;;;;4954816;29;20403;-70
2022/06/06 05:29:41;;;;;;;0.10;0.10;;;17.60;99.90;;;;;;4953877;29;20039;-70
2022/06/06 05:32:37;;;;;;;0.20;0.20;;;17.60;99.90;;;;;;4954947;29;20118;-70
2022/06/06 05:35:27;;;;;;;1.65;1.55;;;17.70;99.90;;;;;;4953809;29;20047;-70
2022/06/06 05:38:16;;;;;;;0.32;0.25;;;17.80;99.90;;;;;;4950166;28;20114;-70
2022/06/06 05:41:15;;;;;;;0.00;0.00;;;18.00;99.90;;;;;;4934809;29;20032;-70
2022/06/06 05:44:09;;;;;;;3.47;0.95;;;18.00;99.90;;;;;;4935350;29;20389;-70
2022/06/06 05:46:58;;;;;;;0.30;0.30;;;17.90;99.90;;;;;;4935540;29;20094;-70
2022/06/06 05:49:44;;;;;;;0.88;0.65;;;18.00;99.90;;;;;;4933395;29;20039;-70
2022/06/06 05:52:45;;;;;;;0.63;0.60;;;17.90;99.90;;;;;;4935291;29;20066;-70
2022/06/06 05:55:36;;;;;;;;;;;18.00;99.90;;;;;;4935456;29;20063;-71
2022/06/06 05:58:25;;;;;;;0.35;0.35;;;18.00;99.90;;;;;;4935115;29;19934;-70
2022/06/06 06:01:22;;;;;;;0.55;0.55;;;18.00;99.90;;;;;;4905589;29;20043;-70
2022/06/06 06:04:14;;;;;;;0.22;0.22;;;18.10;99.90;;;;;;4915488;29;20028;-72
2022/06/06 06:06:51;;;;;;;0.38;0.38;;;18.20;99.90;;;;;;4916277;29;20039;-72
2022/06/06 06:09:42;;;;;;;0.85;0.82;;;18.20;99.90;;;;;;4928834;29;20043;-70
2022/06/06 06:13:01;;;;;;;0.45;0.45;;;18.20;99.90;;;;;;4933014;29;20031;-71
2022/06/06 06:15:36;;;;;;;0.10;0.10;;;18.30;99.90;;;;;;4935134;29;20099;-70
2022/06/06 06:18:38;;;;;;;0.28;0.28;;;18.40;99.90;;;;;;4946673;29;20476;-70
2022/06/06 06:21:12;;;;;;;1.13;1.08;;;18.40;99.90;;;;;;4910590;29;20043;-70
2022/06/06 06:23:50;;;;;;;0.10;0.10;;;18.50;99.90;;;;;;4952363;29;20028;-71
2022/06/06 06:26:16;;;;;;;0.10;0.10;;;18.40;99.90;;;;;;4952700;29;20035;-70
2022/06/06 06:28:46;;;;;;;0.10;0.10;;;18.30;99.90;;;;;;4953013;29;20035;-71
2022/06/06 06:31:46;;;;;;;0.13;0.07;;;18.40;99.90;;;;;;4952514;29;20079;-72
2022/06/06 06:35:18;;;;;;;0.55;0.52;;;18.60;99.90;;;;;;4927087;29;20113;-72
2022/06/06 06:38:30;;;;;;;0.50;0.45;;;18.80;99.90;;;;;;4938564;29;20047;-72
2022/06/06 06:41:50;;;;;;;0.45;0.45;;;18.30;99.90;;;;;;4935097;29;20024;-76
2022/06/06 06:44:30;;;;;;;0.57;0.57;;;18.40;99.90;;;;;;4933783;29;20130;-71
2022/06/06 06:47:03;;;;;;;0.73;0.73;;;18.50;99.90;;;;;;4933314;29;20118;-72
2022/06/06 06:49:53;;;;;;;0.68;0.50;;;18.50;99.90;;;;;;4932607;29;20043;-71
2022/06/06 06:52:38;;;;;;;0.00;0.00;;;18.40;99.90;;;;;;4933285;29;20115;-72
2022/06/06 06:55:36;;;;;;;0.00;0.00;;;18.30;99.90;;;;;;4936397;29;20047;-72
2022/06/06 06:58:30;;;;;;;0.22;0.22;;;18.30;99.90;;;;;;4935671;28;20056;-73
2022/06/06 07:01:04;;;;;;;0.20;0.20;;;18.30;99.90;;;;;;4933805;29;20027;-72
2022/06/06 07:11:30;;;;;;;0.20;0.20;;;18.70;99.90;;;;;;4930559;29;20051;-76
2022/06/06 07:14:41;;;;;;;0.10;0.10;;;18.60;99.90;;;;;;4939402;28;20039;-71
2022/06/06 07:17:11;;;;;;;0.00;0.00;;;18.50;99.90;;;;;;4953097;29;20558;-73
2022/06/06 07:20:08;;;;;;;1.02;0.38;;;18.70;99.90;;;;;;4951086;29;20027;-73
2022/06/06 07:25:38;;;;;;;0.35;0.35;;;19.10;99.90;;;;;;4952769;29;20034;-74
2022/06/06 07:28:13;;;;;;;0.38;0.38;;;19.10;99.90;;;;;;4951532;29;20035;-72
2022/06/06 07:30:59;;;;;;;0.38;0.38;;;18.90;99.90;;;;;;4950550;28;20043;-72
2022/06/06 07:33:54;;;;;;;0.30;0.25;;;18.80;99.90;;;;;;4937799;29;20391;-72
2022/06/06 07:36:32;;;;;;;10.05;1.13;;;18.90;99.90;;;;;;4952821;29;20142;-71
2022/06/06 07:39:29;;;;;;;0.40;0.40;;;19.00;99.90;;;;;;4938064;29;20074;-73
2022/06/06 07:42:17;;;;;;;0.00;0.00;;;19.00;99.90;;;;;;4933310;29;20090;-73
2022/06/06 07:45:31;;;;;;;0.22;0.22;;;19.10;99.90;;;;;;4933814;29;20032;-73
2022/06/06 07:48:14;;;;;;;0.00;0.00;;;19.20;99.90;;;;;;4933773;29;20036;-71
2022/06/06 07:50:53;;;;;;;7.22;1.05;;;19.20;99.90;;;;;;4931392;29;20024;-73
2022/06/06 07:53:38;;;;;;;0.57;0.57;;;19.20;99.90;;;;;;4933504;29;20035;-72
2022/06/06 07:56:23;;;;;;;0.20;0.20;;;19.30;99.90;;;;;;4931994;29;20023;-73
2022/06/06 07:59:14;;;;;;;2.10;1.10;;;19.20;99.90;;;;;;4932552;29;20035;-68
2022/06/06 08:02:16;;;;;;;19.30;2.85;;;19.40;99.90;;;;;;4932905;29;20035;-68
2022/06/06 08:05:21;;;;;;;0.13;0.13;;;19.50;99.90;;;;;;4933442;29;20035;-68
2022/06/06 08:08:41;;;;;;;0.43;0.43;;;19.60;99.90;;;;;;4932322;29;20118;-67
2022/06/06 08:11:26;;;;;;;0.20;0.10;;;19.70;99.90;;;;;;4931915;29;20039;-68
2022/06/06 08:14:20;;;;;;;0.00;0.00;;;20.00;99.90;;;;;;4933120;29;20552;-68
2022/06/06 08:17:25;;;;;;;0.08;0.08;;;19.90;99.90;;;;;;4932835;29;20039;-67
2022/06/06 08:20:15;;;;;;;3.75;0.73;;;20.30;99.90;;;;;;4932384;29;20039;-69
2022/06/06 08:22:44;;;;;;;0.00;0.00;;;20.50;99.90;;;;;;4933024;29;20042;-67
2022/06/06 08:25:15;;;;;;;0.38;0.38;;;20.70;99.90;;;;;;4931826;29;20024;-68
2022/06/06 08:27:47;;;;;;;0.10;0.05;;;20.80;99.90;;;;;;4931893;29;20488;-69
2022/06/06 08:30:15;;;;;;;0.98;0.98;;;20.80;99.90;;;;;;4947057;28;20118;-68
2022/06/06 08:32:42;;;;;;;0.10;0.10;;;20.80;99.90;;;;;;4933322;29;20039;-67
2022/06/06 08:35:11;;;;;;;0.22;0.22;;;20.70;99.90;;;;;;4931898;29;20019;-68
2022/06/06 08:38:23;;;;;;;0.15;0.15;;;20.60;99.90;;;;;;4932584;29;20079;-67
2022/06/06 08:41:34;;;;;;;0.20;0.20;;;20.60;99.90;;;;;;4934530;29;20042;-67
2022/06/06 08:44:04;;;;;;;0.85;0.32;;;20.70;99.90;;;;;;4937108;29;20508;-67
2022/06/06 08:47:09;;;;;;;0.50;0.50;;;20.90;99.90;;;;;;4949273;29;20039;-67
2022/06/06 08:53:01;;;;;;;0.10;0.10;;;20.80;99.90;;;;;;4943366;29;20471;-67
2022/06/06 08:56:37;;;;;;;0.03;0.03;;;20.60;99.90;;;;;;4949000;29;20039;-65
2022/06/06 08:59:47;;;;;;;0.00;0.00;;;20.60;99.90;;;;;;4910735;29;20160;-66
2022/06/06 09:03:10;;;;;;;0.00;0.00;;;20.70;99.90;;;;;;4836774;29;20125;-65
2022/06/06 09:05:51;;;;;;;0.35;0.30;;;20.90;99.90;;;;;;4943369;28;20510;-66
2022/06/06 09:09:04;;;;;;;0.65;0.65;;;21.00;99.90;;;;;;4943487;29;20032;-67
2022/06/06 09:11:59;;;;;;;2.17;1.55;;;20.90;99.90;;;;;;4932432;29;20099;-66
2022/06/06 09:14:46;;;;;;;0.00;0.00;;;21.00;99.90;;;;;;4935963;29;20408;-66
2022/06/06 09:17:35;;;;;;;0.30;0.22;;;21.00;99.90;;;;;;4936047;29;20036;-66
2022/06/06 09:20:21;;;;;;;0.05;0.05;;;21.00;99.90;;;;;;4935291;29;20042;-67
2022/06/06 09:23:09;;;;;;;0.55;0.38;;;21.50;99.90;;;;;;4936188;29;20035;-67
2022/06/06 09:26:00;;;;;;;0.10;0.10;;;21.80;99.90;;;;;;4935844;29;20104;-66
2022/06/06 09:29:02;;;;;;;0.03;0.03;;;21.70;99.90;;;;;;4929685;29;20107;-67
2022/06/06 09:31:59;;;;;;;0.00;0.00;;;21.50;99.90;;;;;;4935579;29;20103;-67
2022/06/06 09:34:48;;;;;;;0.28;0.25;;;21.50;99.90;;;;;;4934440;29;20035;-66
2022/06/06 09:37:55;;;;;;;0.10;0.10;;;21.50;99.90;;;;;;4934497;29;20027;-67
2022/06/06 09:40:54;;;;;;;0.00;0.00;;;21.40;99.90;;;;;;4933855;29;20044;-67
2022/06/06 09:44:07;;;;;;;0.30;0.30;;;21.50;99.90;;;;;;4899067;29;20048;-68
2022/06/06 09:47:10;;;;;;;0.08;0.00;;;21.70;99.90;;;;;;4923845;29;20523;-65
2022/06/06 09:50:25;;;;;;;0.00;0.00;;;21.60;99.90;;;;;;4933321;29;20074;-65
2022/06/06 09:59:01;;;;;;;0.65;0.43;;;22.00;99.90;;;;;;4934520;29;20035;-65
2022/06/06 09:59:59;;;;;;;0.00;0.00;;;21.70;99.90;;;;;;4934444;29;20083;-65
2022/06/06 10:03:02;;;;;;;0.00;0.00;;;21.90;99.90;;;;;;4935400;29;20115;-64
2022/06/06 10:06:13;;;;;;;0.85;0.45;;;21.90;99.90;;;;;;4935310;29;20122;-65
2022/06/06 10:09:46;;;;;;;0.60;0.28;;;22.00;99.90;;;;;;4934560;29;20047;-65
2022/06/06 10:13:13;;;;;;;0.00;0.00;;;22.40;99.90;;;;;;4921722;29;20547;-65
2022/06/06 10:15:57;;;;;;;0.43;0.38;;;22.70;99.70;;;;;;4910104;29;20495;-65
2022/06/06 10:18:55;;;;;;;1.30;0.20;;;22.80;99.90;;;;;;4934717;29;20046;-65
2022/06/06 10:22:08;;;;;;;0.13;0.00;;;22.90;99.90;;;;;;4934853;29;20028;-64
2022/06/06 10:25:15;;;;;;;0.10;0.10;;;22.90;99.90;;;;;;4916129;29;20523;-65
2022/06/06 10:28:42;;;;;;;0.13;0.13;;;22.70;99.10;;;;;;4934752;29;20099;-65
2022/06/06 10:31:33;;;;;;;0.43;0.32;;;22.50;98.80;;;;;;4963694;23;20081;-77
2022/06/06 10:34:31;;;;;;;0.03;0.03;;;22.40;99.80;;;;;;4960710;28;20145;-78
2022/06/06 10:37:33;;;;;;;0.08;0.08;;;22.30;99.90;;;;;;4949182;29;20042;-77
2022/06/06 10:40:37;;;;;;;0.40;0.40;;;22.30;99.70;;;;;;4953175;29;20043;-78
2022/06/06 10:43:30;;;;;;;0.85;0.75;;;22.10;99.90;;;;;;4953555;29;20510;-78
2022/06/06 10:46:10;;;;;;;0.00;0.00;;;22.00;99.70;;;;;;4953501;29;20551;-78
2022/06/06 10:48:54;;;;;;;0.00;0.00;;;21.90;99.60;;;;;;4951580;29;20158;-77
2022/06/06 10:52:01;;;;;;;0.28;0.20;;;21.80;99.90;;;;;;4952346;29;20031;-77
2022/06/06 10:54:50;;;;;;;0.13;0.13;;;21.80;98.80;;;;;;4947365;28;20027;-78
2022/06/06 10:57:41;;;;;;;0.00;0.00;;;21.90;99.90;;;;;;4934002;29;20126;-79
2022/06/06 11:00:28;;;;;;;0.10;0.03;;;21.80;99.90;;;;;;4933432;29;20102;-79
2022/06/06 11:03:30;;;;;;;0.00;0.00;;;21.60;99.90;;;;;;4934232;29;20102;-79
2022/06/06 11:06:29;;;;;;;0.13;0.13;;;21.60;99.90;;;;;;4934263;29;20035;-79
2022/06/06 11:09:59;;;;;;;0.28;0.20;;;21.50;99.90;;;;;;4933529;29;20028;-78
2022/06/06 11:12:57;;;;;;;2.22;1.52;;;21.50;99.90;;;;;;4926911;29;20048;-79
2022/06/06 11:15:38;;;;;;;0.55;0.38;;;21.50;99.90;;;;;;4933807;29;20035;-79
2022/06/06 11:18:48;;;;;;;0.00;0.00;;;21.60;99.90;;;;;;4932634;29;20047;-79
2022/06/06 11:21:47;;;;;;;0.30;0.30;;;21.80;99.90;;;;;;4925657;29;20102;-79
2022/06/06 11:24:32;;;;;;;0.15;0.10;;;21.50;99.90;;;;;;4934015;29;20102;-79
2022/06/06 11:27:26;;;;;;;0.00;0.00;;;21.70;99.90;;;;;;4934221;29;20024;-79
2022/06/06 11:30:23;;;;;;;0.35;0.25;;;21.70;99.90;;;;;;4932745;29;20485;-78
2022/06/06 11:33:35;;;;;;;0.20;0.20;;;21.80;99.90;;;;;;4933453;29;20153;-79
2022/06/06 11:36:55;;;;;;;0.20;0.10;;;21.80;99.90;;;;;;4932815;29;20035;-79
2022/06/06 11:40:11;;;;;;;0.00;0.00;;;21.50;99.90;;;;;;4933085;29;20369;-75
2022/06/06 11:43:05;;;;;;;0.00;0.00;;;21.80;99.90;;;;;;4933445;29;20039;-76
2022/06/06 11:46:20;;;;;;;0.00;0.00;;;21.80;99.90;;;;;;4933643;29;20476;-76
2022/06/06 11:49:09;;;;;;;0.00;0.00;;;21.80;99.40;;;;;;4932756;29;20039;-76
2022/06/06 11:52:02;;;;;;;0.10;0.10;;;21.70;99.90;;;;;;4933486;29;20035;-69
2022/06/06 11:55:20;;;;;;;0.00;0.00;;;21.60;98.30;;;;;;4933191;29;20035;-74
2022/06/06 11:58:24;;;;;;;0.00;0.00;;;21.60;98.70;;;;;;4933405;29;20041;-74
2022/06/06 12:01:09;;;;;;;0.10;0.10;;;21.80;99.10;;;;;;4937308;29;20027;-74
2022/06/06 12:04:02;;;;;;;0.20;0.20;;;21.90;97.80;;;;;;4952269;28;20118;-75
2022/06/06 12:07:02;;;;;;;0.00;0.00;;;22.20;97.50;;;;;;4952746;29;20093;-63
2022/06/06 12:09:59;;;;;;;0.22;0.22;;;22.60;97.40;;;;;;4951574;29;20035;-64
2022/06/06 12:13:05;;;;;;;0.00;0.00;;;23.30;95.20;;;;;;4952383;28;20040;-63
2022/06/06 12:16:15;;;;;;;0.00;0.00;;;23.60;95.10;;;;;;4929697;29;20040;-65
2022/06/06 12:19:06;;;;;;;0.52;0.40;;;23.50;94.60;;;;;;4965708;28;20031;-63
2022/06/06 12:22:03;;;;;;;0.00;0.00;;;22.80;94.90;;;;;;4951513;28;20046;-63
2022/06/06 12:25:06;;;;;;;0.00;0.00;;;23.40;95.90;;;;;;4952125;28;20472;-63
2022/06/06 12:28:34;;;;;;;0.00;0.00;;;23.40;94.90;;;;;;4952643;29;20091;-64
2022/06/06 12:31:37;;;;;;;0.03;0.03;;;22.90;96.50;;;;;;4951354;29;20397;-63
2022/06/06 12:34:27;;;;;;;0.00;0.00;;;22.80;96.90;;;;;;4952350;29;20031;-64
2022/06/06 12:37:18;;;;;;;0.00;0.00;;;22.80;97.00;;;;;;4965129;28;20039;-64
2022/06/06 12:40:16;;;;;;;0.00;0.00;;;22.60;96.70;;;;;;4964836;28;20035;-63
2022/06/06 12:42:57;;;;;;;0.10;0.10;;;22.60;96.20;;;;;;4952036;28;20077;-64
2022/06/06 12:45:44;;;;;;;0.00;0.00;;;22.50;97.40;;;;;;4951948;29;20472;-64
2022/06/06 12:48:50;;;;;;;0.00;0.00;;;22.80;97.30;;;;;;4954870;28;20118;-64
2022/06/06 12:51:33;;;;;;;0.05;0.05;;;22.90;98.50;;;;;;4970400;28;20043;-64
2022/06/06 12:58:12;;;;;;;0.00;0.00;;;22.70;95.80;;;;;;4955742;29;20053;-64
2022/06/06 13:04:14;;;;;;;0.00;0.00;;;23.60;95.70;;;;;;4966516;28;20539;-64
2022/06/06 13:07:18;;;;;;;0.00;0.00;;;23.80;95.20;;;;;;4968468;28;20039;-64
2022/06/06 13:10:27;;;;;;;0.00;0.00;;;24.10;94.10;;;;;;4954692;29;20054;-64
2022/06/06 13:13:10;;;;;;;0.03;0.03;;;24.10;93.30;;;;;;4969803;28;20027;-66
2022/06/06 13:15:55;;;;;;;0.00;0.00;;;24.40;91.60;;;;;;4955072;29;20412;-66
2022/06/06 13:18:52;;;;;;;0.65;0.28;;;24.60;91.80;;;;;;4955058;29;20062;-65
2022/06/06 13:21:27;;;;;;;0.55;0.30;;;24.80;91.00;;;;;;4955143;28;20082;-65
2022/06/06 13:24:07;;;;;;;0.00;0.00;;;25.00;91.00;;;;;;4954857;28;20040;-64
2022/06/06 13:26:53;;;;;;;;;;;24.60;92.10;;;;;;4955436;29;20027;-65
2022/06/06 13:29:35;;;;;;;0.00;0.00;;;25.30;91.00;;;;;;4954005;28;19973;-81
2022/06/06 13:32:44;;;;;;;0.20;0.20;;;25.50;91.60;;;;;;4953701;28;20558;-80
2022/06/06 13:35:53;;;;;;;0.00;0.00;;;26.00;91.30;;;;;;4954773;28;20038;-79
2022/06/06 13:38:40;;;;;;;0.00;0.00;;;26.30;90.50;;;;;;4938476;28;20424;-77
2022/06/06 13:41:36;;;;;;;0.00;0.00;;;26.50;90.60;;;;;;4954420;28;20409;-77
2022/06/06 13:44:56;;;;;;;2.72;0.70;;;26.80;90.50;;;;;;4954496;28;20055;-75
2022/06/06 13:47:42;;;;;;;0.32;0.32;;;26.70;90.10;;;;;;4954555;28;20475;-75
2022/06/06 13:50:43;;;;;;;0.00;0.00;;;27.20;84.80;;;;;;4952305;29;20123;-75
2022/06/06 13:53:42;;;;;;;0.00;0.00;;;26.40;90.90;;;;;;4938625;29;20089;-74
2022/06/06 13:56:53;;;;;;;0.00;0.00;;;26.10;92.10;;;;;;4954363;29;20038;-74
2022/06/06 13:59:56;;;;;;;;;;;25.80;90.80;;;;;;4952978;28;20070;-74
2022/06/06 14:03:14;;;;;;;0.20;0.20;;;25.60;91.30;;;;;;4954180;28;19911;-73
2022/06/06 14:06:16;;;;;;;0.00;0.00;;;26.40;90.30;;;;;;4954063;28;20185;-73
2022/06/06 14:08:54;;;;;;;0.00;0.00;;;27.40;88.00;;;;;;4951949;28;20118;-74
2022/06/06 14:11:53;;;;;;;0.00;0.00;;;28.00;84.50;;;;;;4953075;28;20500;-75
2022/06/06 14:14:21;;;;;;;0.00;0.00;;;28.30;83.40;;;;;;4952557;29;20130;-75
2022/06/06 14:16:53;;;;;;;0.15;0.13;;;28.30;76.80;;;;;;4952840;29;20038;-74
2022/06/06 14:19:32;;;;;;;0.00;0.00;;;27.60;77.20;;;;;;4951883;29;20050;-75
2022/06/06 14:22:03;;;;;;;0.20;0.20;;;26.90;74.60;;;;;;4952760;29;20023;-74
2022/06/06 14:24:36;;;;;;;0.05;0.00;;;25.90;76.30;;;;;;4952594;29;20134;-75
2022/06/06 14:27:05;;;;;;;0.03;0.03;;;25.50;80.60;;;;;;4953863;28;20023;-75
2022/06/06 14:29:41;;;;;;;0.00;0.00;;;24.80;83.10;;;;;;4954490;28;20035;-74
2022/06/06 14:32:49;;;;;;;0.35;0.35;;;24.50;84.50;;;;;;4952597;29;20043;-74
2022/06/06 14:35:15;;;;;;;0.00;0.00;;;24.30;84.50;;;;;;4947910;28;20118;-74
2022/06/06 14:37:46;;;;;;;0.00;0.00;;;24.20;84.90;;;;;;4953430;29;20481;-73
2022/06/06 14:40:34;;;;;;;0.00;0.00;;;24.30;85.60;;;;;;4953032;28;20113;-74
2022/06/06 14:43:00;;;;;;;0.25;0.25;;;24.60;85.30;;;;;;4965922;28;20114;-76
2022/06/06 14:45:32;;;;;;;0.10;0.10;;;25.50;84.80;;;;;;4953369;28;20110;-75
2022/06/06 14:48:06;;;;;;;0.15;0.15;;;25.50;83.60;;;;;;4909177;28;20052;-74
2022/06/06 14:50:45;;;;;;;0.75;0.20;;;26.10;81.80;;;;;;4966732;28;20035;-73
2022/06/06 14:53:58;;;;;;;0.00;0.00;;;26.80;80.00;;;;;;4966638;28;20480;-74
2022/06/06 14:56:36;;;;;;;0.10;0.10;;;27.20;79.20;;;;;;4954963;28;20070;-62
2022/06/06 14:59:14;;;;;;;0.10;0.10;;;26.10;81.60;;;;;;4952297;28;20027;-75
2022/06/06 15:01:41;;;;;;;0.10;0.10;;;25.50;83.40;;;;;;4952713;28;20032;-76
2022/06/06 15:04:23;;;;;;;0.30;0.30;;;25.00;85.10;;;;;;4953247;28;20034;-75
2022/06/06 15:06:57;;;;;;;0.20;0.17;;;25.20;84.30;;;;;;4967420;28;20407;-75
2022/06/06 15:09:49;;;;;;;0.00;0.00;;;25.80;84.00;;;;;;4951387;28;20055;-75
2022/06/06 15:12:26;;;;;;;0.00;0.00;;;26.90;80.70;;;;;;4966944;28;20038;-76